Time;durP1;ratioP1;P1;durP2;ratioP2;P2;SDS_P1;SDS_P2;PMS_P1;PMS_P2;Temp;Humidity;BMP_temperature;BMP_pressure;BME280_temperature;BME280_humidity;BME280_pressure;Samples;Min_cycle;Max_cycle;Signal;HPM_P1;HPM_P2
2021/12/28 00:00:47;;;;;;;3.22;1.90;;;;;;;9.70;76.10;98417.25;5078953;28;20045;-82
2021/12/28 00:03:16;;;;;;;3.28;1.98;;;;;;;9.77;75.38;98416.63;5078371;28;20045;-81
2021/12/28 00:05:44;;;;;;;2.90;1.80;;;;;;;9.77;75.63;98413.84;5081238;28;20501;-81
2021/12/28 00:08:12;;;;;;;4.40;2.10;;;;;;;9.78;75.88;98417.41;5101496;28;20052;-81
2021/12/28 00:10:40;;;;;;;3.27;2.30;;;;;;;9.68;75.30;98415.97;5098980;28;20048;-81
2021/12/28 00:13:08;;;;;;;4.53;2.63;;;;;;;9.69;75.88;98407.28;5087465;28;20078;-81
2021/12/28 00:15:48;;;;;;;4.05;2.53;;;;;;;9.81;75.51;98416.72;5087920;28;20067;-81
2021/12/28 00:18:17;;;;;;;3.85;2.50;;;;;;;9.83;75.21;98411.59;5087259;28;20058;-81
2021/12/28 00:20:48;;;;;;;3.72;2.75;;;;;;;9.78;75.77;98411.84;5087499;28;20056;-81
2021/12/28 00:23:18;;;;;;;4.93;3.30;;;;;;;9.78;75.76;98403.50;5091548;28;20063;-80
2021/12/28 00:25:51;;;;;;;3.75;2.50;;;;;;;9.75;76.00;98400.28;5085079;28;20040;-81
2021/12/28 00:28:22;;;;;;;3.47;2.78;;;;;;;9.81;75.43;98400.03;5085920;28;20052;-81
2021/12/28 00:30:51;;;;;;;5.05;3.40;;;;;;;9.72;76.04;98403.78;5087412;28;20409;-80
2021/12/28 00:33:22;;;;;;;4.95;3.42;;;;;;;9.73;75.97;98399.84;5085503;28;20048;-81
2021/12/28 00:35:49;;;;;;;4.88;3.38;;;;;;;9.59;76.67;98405.03;5084645;28;20048;-80
2021/12/28 00:38:21;;;;;;;4.93;3.10;;;;;;;9.63;76.64;98394.81;5086293;28;20047;-80
2021/12/28 00:40:50;;;;;;;5.22;2.90;;;;;;;9.94;75.70;98393.97;5087231;28;20045;-81
2021/12/28 00:43:19;;;;;;;7.57;3.47;;;;;;;10.03;75.33;98393.78;5086076;28;20049;-80
2021/12/28 00:45:50;;;;;;;5.22;3.25;;;;;;;10.00;75.35;98390.94;5086427;28;20045;-81
2021/12/28 00:48:19;;;;;;;5.38;3.42;;;;;;;9.95;75.39;98395.63;5087284;28;20055;-81
2021/12/28 00:50:47;;;;;;;4.88;3.10;;;;;;;9.94;75.20;98395.97;5084577;28;20052;-80
2021/12/28 00:53:15;;;;;;;4.85;3.30;;;;;;;9.85;75.49;98396.16;5082127;28;20066;-81
2021/12/28 00:55:43;;;;;;;6.18;3.78;;;;;;;9.85;75.62;98395.34;5079912;28;20053;-81
2021/12/28 00:58:10;;;;;;;6.90;3.67;;;;;;;9.86;75.63;98385.84;5076292;28;20049;-81
2021/12/28 01:00:40;;;;;;;5.70;3.67;;;;;;;9.78;75.90;98382.06;5064180;28;20139;-81
2021/12/28 01:03:07;;;;;;;;;;;;;;;9.86;75.37;98374.72;5078099;28;20057;-81
2021/12/28 01:05:37;;;;;;;5.22;3.15;;;;;;;9.84;75.38;98354.81;5084743;28;19927;-81
2021/12/28 01:08:05;;;;;;;;;;;;;;;9.86;74.96;98358.81;5083700;28;20052;-81
2021/12/28 01:10:37;;;;;;;5.50;2.97;;;;;;;9.75;75.37;98352.22;5084442;28;19921;-80
2021/12/28 01:13:04;;;;;;;4.80;3.20;;;;;;;9.61;75.83;98346.31;5083795;28;20049;-81
2021/12/28 01:15:33;;;;;;;5.93;3.17;;;;;;;9.58;75.56;98347.06;5086034;28;20048;-81
2021/12/28 01:18:00;;;;;;;7.35;3.22;;;;;;;9.62;75.52;98348.75;5085172;28;20067;-82
2021/12/28 01:20:28;;;;;;;6.32;2.95;;;;;;;9.58;75.43;98350.63;5084922;28;20052;-81
2021/12/28 01:22:57;;;;;;;8.50;3.33;;;;;;;9.45;75.98;98349.09;5086453;28;20123;-81
2021/12/28 01:25:30;;;;;;;6.40;2.67;;;;;;;9.53;75.56;98342.53;5085845;28;20063;-81
2021/12/28 01:27:58;;;;;;;6.55;3.38;;;;;;;9.46;76.32;98345.16;5085405;28;20048;-80
2021/12/28 01:30:27;;;;;;;7.35;3.03;;;;;;;9.39;76.37;98342.22;5084772;28;20048;-81
2021/12/28 01:32:58;;;;;;;6.32;2.65;;;;;;;9.47;75.88;98328.16;5084490;28;20378;-81
2021/12/28 01:35:27;;;;;;;5.47;2.97;;;;;;;9.57;75.80;98337.09;5085440;28;20053;-80
2021/12/28 01:37:55;;;;;;;6.60;2.67;;;;;;;9.53;75.46;98334.22;5085599;28;20060;-80
2021/12/28 01:40:29;;;;;;;7.18;3.03;;;;;;;9.54;75.22;98339.41;5085245;28;20059;-81
2021/12/28 01:43:10;;;;;;;9.98;2.95;;;;;;;9.51;75.17;98342.09;5085312;28;20064;-81
2021/12/28 01:45:45;;;;;;;5.05;2.20;;;;;;;9.52;75.02;98335.38;5086765;28;20055;-80
2021/12/28 01:48:14;;;;;;;5.47;2.22;;;;;;;9.56;74.85;98339.06;5089752;28;20048;-81
2021/12/28 01:50:42;;;;;;;10.65;3.28;;;;;;;9.46;75.23;98337.63;5088035;28;20079;-79
2021/12/28 01:53:10;;;;;;;6.38;2.85;;;;;;;9.46;75.10;98340.41;5089381;28;20053;-81
2021/12/28 01:55:41;;;;;;;10.77;3.00;;;;;;;9.53;74.63;98342.53;5089582;28;20060;-80
2021/12/28 01:58:09;;;;;;;7.90;2.78;;;;;;;9.53;74.82;98348.09;5089069;28;20052;-80
2021/12/28 02:00:38;;;;;;;5.82;2.45;;;;;;;9.57;74.32;98349.00;5088281;28;20048;-80
2021/12/28 02:03:08;;;;;;;7.30;2.63;;;;;;;9.62;74.33;98345.97;5088952;28;20056;-81
2021/12/28 02:05:35;;;;;;;9.93;3.45;;;;;;;9.59;74.34;98354.22;5087700;28;20409;-80
2021/12/28 02:08:03;;;;;;;7.70;2.92;;;;;;;9.58;74.36;98345.06;5089179;28;20048;-80
2021/12/28 02:10:31;;;;;;;6.90;2.35;;;;;;;9.62;74.24;98351.53;5088181;28;20493;-80
2021/12/28 02:13:03;;;;;;;11.02;3.10;;;;;;;9.60;74.22;98345.53;5087610;28;20382;-80
2021/12/28 02:15:37;;;;;;;7.93;3.10;;;;;;;9.64;74.03;98337.25;5087745;28;20405;-80
2021/12/28 02:18:07;;;;;;;9.20;3.00;;;;;;;9.59;73.93;98340.31;5085383;28;20060;-79
2021/12/28 02:20:37;;;;;;;7.65;2.90;;;;;;;9.58;74.29;98341.50;5084037;28;20048;-79
2021/12/28 02:23:04;;;;;;;;;;;;;;;9.50;74.60;98338.53;5071576;28;20056;-80
2021/12/28 02:25:35;;;;;;;6.70;3.17;;;;;;;9.54;74.62;98335.84;5063656;28;19946;-81
2021/12/28 02:28:03;;;;;;;8.70;3.03;;;;;;;9.61;74.49;98336.00;5062372;28;20060;-80
2021/12/28 02:30:31;;;;;;;6.63;2.75;;;;;;;9.68;73.99;98316.72;5062798;28;20052;-80
2021/12/28 02:32:58;;;;;;;9.55;3.65;;;;;;;9.62;74.42;98315.38;5064588;28;20053;-80
2021/12/28 02:35:27;;;;;;;9.55;2.75;;;;;;;9.66;73.73;98310.72;5067367;28;20055;-79
2021/12/28 02:37:56;;;;;;;12.43;3.35;;;;;;;9.60;74.09;98320.50;5067228;28;20049;-81
2021/12/28 02:40:27;;;;;;;8.90;2.85;;;;;;;9.68;73.82;98315.91;5067142;28;20057;-80
2021/12/28 02:42:56;;;;;;;9.88;2.92;;;;;;;9.80;73.49;98315.00;5067478;28;20064;-81
2021/12/28 02:45:26;;;;;;;8.05;3.08;;;;;;;9.80;73.52;98315.00;5068395;28;20057;-81
2021/12/28 02:47:54;;;;;;;10.93;3.40;;;;;;;9.77;73.64;98310.16;5067446;28;20056;-81
2021/12/28 02:50:25;;;;;;;7.97;3.10;;;;;;;9.83;73.30;98312.31;5067981;28;20049;-81
2021/12/28 02:52:53;;;;;;;6.88;2.53;;;;;;;9.80;73.35;98303.88;5066437;28;20053;-81
2021/12/28 02:55:26;;;;;;;8.02;3.08;;;;;;;9.92;72.82;98298.19;5067419;28;20049;-81
2021/12/28 02:57:57;;;;;;;11.52;3.70;;;;;;;9.95;72.93;98300.22;5066542;28;20033;-81
2021/12/28 03:00:35;;;;;;;10.32;3.85;;;;;;;9.89;72.88;98294.16;5065771;28;20055;-81
2021/12/28 03:03:06;;;;;;;11.55;3.40;;;;;;;9.93;72.81;98297.00;5071078;28;20064;-80
2021/12/28 03:05:34;;;;;;;10.07;2.67;;;;;;;9.99;72.62;98289.19;5066496;28;20057;-81
2021/12/28 03:08:01;;;;;;;10.98;3.15;;;;;;;9.95;72.82;98289.09;5066446;28;20052;-81
2021/12/28 03:10:30;;;;;;;10.10;3.53;;;;;;;9.94;72.96;98287.50;5065789;28;20071;-79
2021/12/28 03:13:00;;;;;;;11.73;3.35;;;;;;;9.89;73.60;98279.44;5066105;28;20060;-81
2021/12/28 03:15:28;;;;;;;11.02;3.80;;;;;;;9.86;73.87;98280.97;5066964;28;20053;-81
2021/12/28 03:17:55;;;;;;;12.35;3.85;;;;;;;9.91;73.80;98271.53;5066102;28;20072;-81
2021/12/28 03:20:23;;;;;;;12.38;2.88;;;;;;;9.99;73.36;98267.75;5067824;28;20055;-81
2021/12/28 03:22:50;;;;;;;13.23;3.42;;;;;;;10.00;73.38;98272.16;5067154;28;20057;-80
2021/12/28 03:25:18;;;;;;;13.40;3.42;;;;;;;10.11;73.09;98261.25;5067193;28;20053;-80
2021/12/28 03:27:47;;;;;;;10.90;3.45;;;;;;;10.10;73.14;98252.09;5066410;28;20049;-81
2021/12/28 03:30:17;;;;;;;10.98;3.22;;;;;;;10.18;72.66;98253.03;5065751;28;20057;-81
2021/12/28 03:32:46;;;;;;;13.60;3.90;;;;;;;10.07;72.78;98258.38;5066072;28;20049;-81
2021/12/28 03:35:16;;;;;;;11.85;3.80;;;;;;;10.15;73.11;98253.78;5066540;28;20052;-82
2021/12/28 03:37:47;;;;;;;11.82;3.78;;;;;;;10.07;73.39;98247.25;5066429;28;20067;-81
2021/12/28 03:40:17;;;;;;;19.63;3.83;;;;;;;10.04;73.63;98248.00;5066348;28;20053;-81
2021/12/28 03:42:46;;;;;;;14.18;3.65;;;;;;;10.12;73.55;98243.38;5066477;28;20410;-80
2021/12/28 03:45:14;;;;;;;17.27;3.70;;;;;;;10.20;73.01;98241.53;5067159;28;20053;-80
2021/12/28 03:47:42;;;;;;;14.85;3.63;;;;;;;10.33;72.87;98234.69;5065924;28;20056;-80
2021/12/28 03:50:11;;;;;;;9.00;3.28;;;;;;;10.23;73.10;98238.03;5065588;28;20064;-80
2021/12/28 03:52:39;;;;;;;14.70;3.85;;;;;;;10.15;73.28;98232.31;5065529;28;20053;-80
2021/12/28 03:55:09;;;;;;;16.70;3.85;;;;;;;10.09;73.82;98228.22;5075976;28;20059;-80
2021/12/28 03:57:39;;;;;;;14.90;3.53;;;;;;;10.13;73.47;98229.09;5087551;28;20037;-81
2021/12/28 04:00:11;;;;;;;12.98;2.97;;;;;;;10.31;73.36;98220.31;5078811;28;20049;-81
2021/12/28 04:02:40;;;;;;;19.52;3.67;;;;;;;10.09;73.77;98222.66;5075829;28;20048;-80
2021/12/28 04:05:09;;;;;;;14.23;3.90;;;;;;;10.30;73.02;98221.50;5076176;28;20056;-80
2021/12/28 04:07:37;;;;;;;13.82;3.38;;;;;;;10.39;72.58;98213.72;5076471;28;20052;-80
2021/12/28 04:10:08;;;;;;;13.82;4.03;;;;;;;10.45;72.39;98217.81;5076424;28;20059;-80
2021/12/28 04:12:36;;;;;;;18.75;4.45;;;;;;;10.39;72.78;98207.34;5076252;28;20485;-81
2021/12/28 04:15:04;;;;;;;11.65;3.25;;;;;;;10.34;72.89;98205.69;5076687;28;20052;-80
2021/12/28 04:17:37;;;;;;;13.30;3.30;;;;;;;10.47;72.30;98203.53;5076240;28;20067;-81
2021/12/28 04:20:06;;;;;;;16.98;3.60;;;;;;;10.49;72.21;98207.56;5076012;28;20052;-80
2021/12/28 04:22:33;;;;;;;16.92;3.83;;;;;;;10.57;71.87;98209.31;5076194;28;20052;-80
2021/12/28 04:25:01;;;;;;;12.18;3.70;;;;;;;10.59;71.72;98210.94;5076713;28;20049;-80
2021/12/28 04:27:29;;;;;;;16.40;3.55;;;;;;;10.40;72.54;98204.22;5076523;28;20055;-80
2021/12/28 04:29:56;;;;;;;12.68;3.25;;;;;;;10.40;72.54;98193.09;5076015;28;20511;-80
2021/12/28 04:32:23;;;;;;;15.38;4.10;;;;;;;10.50;72.20;98192.47;5075878;28;20135;-80
2021/12/28 04:34:53;;;;;;;11.48;3.40;;;;;;;10.54;71.97;98187.78;5075559;28;20049;-80
2021/12/28 04:37:20;;;;;;;11.88;2.97;;;;;;;10.48;72.16;98186.47;5076020;28;20053;-82
2021/12/28 04:39:49;;;;;;;16.50;4.10;;;;;;;10.55;72.11;98189.38;5076538;28;20048;-83
2021/12/28 04:42:17;;;;;;;15.07;4.28;;;;;;;10.57;72.11;98187.03;5076444;28;20044;-82
2021/12/28 04:44:46;;;;;;;12.07;3.17;;;;;;;10.65;71.62;98184.38;5076909;28;20053;-82
2021/12/28 04:47:14;;;;;;;10.00;3.25;;;;;;;10.59;71.67;98189.44;5077153;28;20505;-83
2021/12/28 04:49:42;;;;;;;12.57;3.30;;;;;;;10.61;71.76;98175.97;5077204;28;20048;-82
2021/12/28 04:52:11;;;;;;;10.48;3.63;;;;;;;10.62;71.81;98179.53;5077018;28;20064;-81
2021/12/28 04:54:38;;;;;;;9.93;3.40;;;;;;;10.40;72.58;98181.94;5077228;28;20048;-82
2021/12/28 04:57:07;;;;;;;14.23;4.35;;;;;;;10.49;72.40;98176.94;5076639;28;20071;-81
2021/12/28 04:59:35;;;;;;;14.77;3.63;;;;;;;10.71;71.60;98171.78;5076728;28;20056;-82
2021/12/28 05:02:03;;;;;;;12.18;3.78;;;;;;;10.69;71.48;98172.13;5076310;28;20053;-81
2021/12/28 05:04:30;;;;;;;15.57;4.20;;;;;;;10.56;71.93;98185.44;5077005;28;20052;-81
2021/12/28 05:07:00;;;;;;;15.60;3.45;;;;;;;10.49;72.39;98170.56;5077091;28;20052;-81
2021/12/28 05:09:28;;;;;;;11.60;3.15;;;;;;;10.44;72.22;98165.34;5076936;28;20052;-82
2021/12/28 05:11:56;;;;;;;11.93;3.30;;;;;;;10.46;72.50;98160.19;5076400;28;20048;-81
2021/12/28 05:14:24;;;;;;;8.93;3.78;;;;;;;10.46;72.39;98152.66;5075809;28;20052;-80
2021/12/28 05:16:51;;;;;;;10.77;2.85;;;;;;;10.47;72.39;98151.47;5076724;28;20051;-81
2021/12/28 05:19:18;;;;;;;13.35;3.40;;;;;;;10.46;72.37;98157.41;5076951;28;20420;-81
2021/12/28 05:21:46;;;;;;;10.95;2.83;;;;;;;10.51;72.11;98148.75;5078341;28;20063;-81
2021/12/28 05:24:13;;;;;;;8.18;3.30;;;;;;;10.51;72.30;98146.75;5091069;28;20059;-81
2021/12/28 05:26:42;;;;;;;9.40;3.47;;;;;;;10.42;72.48;98151.78;5102781;28;20044;-81
2021/12/28 05:29:09;;;;;;;8.70;3.53;;;;;;;10.39;72.83;98151.69;5101005;28;20044;-81
2021/12/28 05:31:37;;;;;;;11.68;3.75;;;;;;;10.33;73.15;98163.16;5102308;28;20044;-81
2021/12/28 05:34:07;;;;;;;11.80;4.10;;;;;;;10.14;73.67;98149.22;5097315;28;20052;-81
2021/12/28 05:36:35;;;;;;;9.73;3.60;;;;;;;10.03;74.16;98149.03;5080184;28;20045;-81
2021/12/28 05:39:03;;;;;;;10.05;3.80;;;;;;;10.04;74.18;98149.84;5079859;28;20055;-81
2021/12/28 05:41:30;;;;;;;11.15;3.78;;;;;;;10.15;73.89;98148.88;5080313;28;20051;-80
2021/12/28 05:43:59;;;;;;;11.43;3.15;;;;;;;10.27;73.52;98147.91;5077990;28;20413;-80
2021/12/28 05:46:26;;;;;;;9.27;3.90;;;;;;;10.12;74.34;98148.78;5078556;28;20493;-81
2021/12/28 05:48:54;;;;;;;11.35;3.20;;;;;;;10.11;74.34;98145.22;5078237;28;20413;-80
2021/12/28 05:51:21;;;;;;;9.77;3.42;;;;;;;10.14;74.18;98141.72;5076922;28;20068;-81
2021/12/28 05:53:49;;;;;;;8.35;3.55;;;;;;;10.27;73.57;98138.75;5077340;28;20048;-81
2021/12/28 05:56:17;;;;;;;6.20;3.28;;;;;;;10.16;74.11;98150.50;5078199;28;20059;-81
2021/12/28 05:58:44;;;;;;;8.25;3.50;;;;;;;10.08;74.22;98128.44;5077974;28;20056;-81
2021/12/28 06:01:14;;;;;;;7.38;3.53;;;;;;;10.26;73.71;98142.69;5078207;28;20063;-81
2021/12/28 06:03:41;;;;;;;6.07;2.83;;;;;;;10.23;73.80;98130.34;5078021;28;20421;-81
2021/12/28 06:06:08;;;;;;;8.55;3.08;;;;;;;10.26;73.71;98131.56;5078266;28;20504;-80
2021/12/28 06:08:36;;;;;;;12.23;3.22;;;;;;;10.29;73.58;98125.25;5078017;28;20064;-80
2021/12/28 06:11:06;;;;;;;8.43;2.60;;;;;;;10.36;73.18;98123.44;5078356;28;20060;-80
2021/12/28 06:13:34;;;;;;;5.15;2.22;;;;;;;10.29;73.23;98114.13;5078059;28;20075;-81
2021/12/28 06:16:01;;;;;;;8.93;2.50;;;;;;;10.42;72.94;98112.03;5077170;28;20045;-81
2021/12/28 06:18:30;;;;;;;8.60;2.58;;;;;;;10.43;72.54;98111.63;5076289;28;20048;-81
2021/12/28 06:20:57;;;;;;;4.70;2.13;;;;;;;10.46;72.84;98102.56;5076755;28;20512;-81
2021/12/28 06:23:25;;;;;;;6.47;2.20;;;;;;;10.41;72.85;98111.19;5076982;28;20467;-80
2021/12/28 06:25:52;;;;;;;9.75;2.17;;;;;;;10.31;73.08;98109.03;5077641;28;20481;-80
2021/12/28 06:28:20;;;;;;;7.93;2.60;;;;;;;10.31;73.28;98100.69;5077941;28;20044;-79
2021/12/28 06:30:47;;;;;;;5.60;2.17;;;;;;;10.43;72.79;98097.72;5077756;28;20056;-81
2021/12/28 06:33:15;;;;;;;6.70;2.72;;;;;;;10.44;72.93;98090.19;5076142;28;20075;-81
2021/12/28 06:35:44;;;;;;;9.23;2.50;;;;;;;10.33;73.13;98090.81;5077130;28;20044;-81
2021/12/28 06:38:12;;;;;;;7.27;2.10;;;;;;;10.20;73.78;98094.91;5077099;28;20226;-81
2021/12/28 06:40:39;;;;;;;6.90;2.50;;;;;;;10.10;74.06;98088.00;5078063;28;20409;-81
2021/12/28 06:43:07;;;;;;;6.25;2.10;;;;;;;10.33;73.34;98092.75;5077281;28;20049;-81
2021/12/28 06:45:35;;;;;;;6.78;1.90;;;;;;;10.20;73.68;98094.09;5076836;28;20053;-80
2021/12/28 06:48:02;;;;;;;4.03;1.95;;;;;;;10.37;72.99;98090.84;5076001;28;20485;-80
2021/12/28 06:50:30;;;;;;;4.80;2.00;;;;;;;10.39;73.02;98107.97;5076965;28;20053;-80
2021/12/28 06:52:59;;;;;;;5.22;1.80;;;;;;;10.40;73.06;98120.72;5076469;28;20412;-80
2021/12/28 06:55:26;;;;;;;6.45;2.15;;;;;;;10.43;72.94;98116.41;5075907;28;20059;-80
2021/12/28 06:57:54;;;;;;;4.75;1.70;;;;;;;10.32;73.35;98122.56;5076337;28;20177;-80
2021/12/28 07:00:22;;;;;;;3.53;1.83;;;;;;;10.43;72.77;98113.63;5076295;28;20416;-81
2021/12/28 07:02:49;;;;;;;5.05;1.60;;;;;;;10.37;73.35;98110.31;5076484;28;20489;-81
2021/12/28 07:05:16;;;;;;;3.08;1.40;;;;;;;10.32;73.26;98099.53;5076338;28;20061;-81
2021/12/28 07:07:44;;;;;;;4.18;1.50;;;;;;;10.51;72.62;98099.44;5076704;28;20076;-80
2021/12/28 07:10:13;;;;;;;4.60;1.83;;;;;;;10.50;72.51;98110.97;5076350;28;20401;-81
2021/12/28 07:12:41;;;;;;;3.72;1.70;;;;;;;10.45;72.61;98103.72;5076015;28;20049;-81
2021/12/28 07:15:09;;;;;;;4.32;1.63;;;;;;;10.49;72.60;98101.78;5075500;28;20060;-80
2021/12/28 07:17:37;;;;;;;4.97;1.90;;;;;;;10.50;72.49;98092.28;5076081;28;20060;-81
2021/12/28 07:20:05;;;;;;;6.43;1.98;;;;;;;10.57;72.12;98089.59;5076045;28;20055;-81
2021/12/28 07:22:32;;;;;;;3.65;1.50;;;;;;;10.55;72.23;98088.38;5074974;28;20048;-82
2021/12/28 07:25:00;;;;;;;3.58;1.60;;;;;;;10.59;72.07;98088.44;5075896;28;20059;-80
2021/12/28 07:27:28;;;;;;;3.30;1.67;;;;;;;10.51;72.34;98093.06;5075336;28;20048;-80
2021/12/28 07:29:56;;;;;;;3.70;1.40;;;;;;;10.37;73.02;98085.28;5074759;28;20512;-81
2021/12/28 07:32:23;;;;;;;3.70;1.30;;;;;;;10.50;72.50;98080.34;5076051;28;20064;-81
2021/12/28 07:34:50;;;;;;;4.65;1.58;;;;;;;10.43;72.35;98083.78;5075587;28;20063;-81
2021/12/28 07:37:18;;;;;;;3.05;1.10;;;;;;;10.46;72.19;98090.63;5075021;28;20516;-80
2021/12/28 07:39:47;;;;;;;4.03;1.42;;;;;;;10.44;72.38;98090.97;5075822;28;20425;-81
2021/12/28 07:42:14;;;;;;;2.80;1.05;;;;;;;10.29;72.84;98101.06;5074741;28;20052;-81
2021/12/28 07:44:43;;;;;;;4.50;1.38;;;;;;;10.33;72.78;98095.53;5075489;28;20062;-80
2021/12/28 07:47:11;;;;;;;2.08;1.00;;;;;;;10.31;72.96;98090.38;5075574;28;20071;-81
2021/12/28 07:49:38;;;;;;;2.13;1.20;;;;;;;10.26;73.13;98092.63;5075137;28;20056;-80
2021/12/28 07:52:06;;;;;;;2.80;1.40;;;;;;;10.40;72.53;98092.09;5074932;28;20444;-80
2021/12/28 07:54:34;;;;;;;2.90;1.38;;;;;;;10.44;72.64;98090.97;5072327;28;20421;-80
2021/12/28 07:57:01;;;;;;;3.58;0.98;;;;;;;10.46;72.18;98085.06;5074869;28;20048;-80
2021/12/28 07:59:28;;;;;;;2.80;1.23;;;;;;;10.51;71.93;98087.50;5074720;28;20048;-81
2021/12/28 08:01:58;;;;;;;3.60;1.08;;;;;;;10.36;72.49;98087.28;5075686;28;20052;-81
2021/12/28 08:04:27;;;;;;;2.40;1.13;;;;;;;10.45;72.38;98089.78;5076414;28;20053;-81
2021/12/28 08:06:55;;;;;;;;;;;;;;;10.57;72.01;98088.81;5076296;28;20551;-82
2021/12/28 08:09:22;;;;;;;3.08;1.23;;;;;;;10.53;71.85;98094.31;5074602;28;19924;-82
2021/12/28 08:11:50;;;;;;;3.10;1.10;;;;;;;10.63;71.59;98090.09;5075484;28;20428;-82
2021/12/28 08:14:18;;;;;;;2.17;1.00;;;;;;;10.63;71.56;98089.31;5076216;28;20056;-81
2021/12/28 08:16:46;;;;;;;2.58;0.95;;;;;;;10.84;71.00;98091.63;5074443;28;20056;-82
2021/12/28 08:19:15;;;;;;;3.83;1.10;;;;;;;10.60;71.80;98090.03;5074747;28;20425;-81
2021/12/28 08:21:42;;;;;;;3.27;1.10;;;;;;;10.70;71.59;98089.41;5074487;28;20060;-82
2021/12/28 08:24:10;;;;;;;3.55;1.13;;;;;;;10.76;71.27;98072.00;5070293;28;20483;-81
2021/12/28 08:26:37;;;;;;;2.50;1.00;;;;;;;10.84;71.15;98075.69;5074562;28;20044;-81
2021/12/28 08:29:05;;;;;;;3.10;0.88;;;;;;;11.01;70.90;98076.34;5073908;28;20048;-81
2021/12/28 08:31:34;;;;;;;2.33;0.80;;;;;;;11.02;70.82;98072.38;5075351;28;20049;-81
2021/12/28 08:34:02;;;;;;;1.40;0.90;;;;;;;11.78;68.43;98061.00;5074689;28;20056;-81
2021/12/28 08:36:31;;;;;;;1.25;0.70;;;;;;;12.97;65.37;98063.59;5074810;28;20060;-81
2021/12/28 08:38:58;;;;;;;2.78;0.80;;;;;;;13.72;62.33;98070.81;5074665;28;20056;-81
2021/12/28 08:41:26;;;;;;;1.92;0.85;;;;;;;14.63;59.52;98066.97;5074542;28;20931;-82
2021/12/28 08:43:53;;;;;;;1.33;0.73;;;;;;;14.58;58.38;98059.78;5074839;28;20055;-80
2021/12/28 08:46:20;;;;;;;1.33;0.60;;;;;;;14.04;60.13;98067.28;5074649;28;20057;-80
2021/12/28 08:48:48;;;;;;;1.50;0.63;;;;;;;14.73;58.17;98080.97;5073647;28;20055;-82
2021/12/28 08:51:16;;;;;;;1.35;0.70;;;;;;;14.00;59.63;98090.47;5074705;28;20079;-82
2021/12/28 08:53:45;;;;;;;2.08;0.73;;;;;;;13.50;61.02;98097.88;5074296;28;20051;-82
2021/12/28 08:56:12;;;;;;;1.30;0.60;;;;;;;13.00;62.59;98095.59;5072856;28;20427;-81
2021/12/28 08:58:39;;;;;;;1.27;0.60;;;;;;;12.77;63.62;98107.78;5073576;28;20041;-81
2021/12/28 09:01:07;;;;;;;2.45;0.60;;;;;;;12.21;65.77;98094.13;5073472;28;20052;-81
2021/12/28 09:03:36;;;;;;;1.48;0.60;;;;;;;11.83;67.04;98088.53;5073635;28;20048;-80
2021/12/28 09:06:05;;;;;;;1.27;0.60;;;;;;;11.84;66.94;98097.69;5073900;28;20064;-80
2021/12/28 09:08:33;;;;;;;1.20;0.50;;;;;;;11.56;68.24;98098.97;5073504;28;20059;-80
2021/12/28 09:11:05;;;;;;;1.30;0.70;;;;;;;11.70;67.99;98089.97;5074168;28;20059;-83
2021/12/28 09:13:32;;;;;;;2.72;0.85;;;;;;;11.30;69.39;98083.91;5071343;28;20394;-83
2021/12/28 09:16:00;;;;;;;1.58;0.60;;;;;;;11.57;68.42;98087.44;5075003;28;20056;-84
2021/12/28 09:18:27;;;;;;;2.60;0.82;;;;;;;11.42;68.94;98091.22;5074897;28;20095;-81
2021/12/28 09:20:56;;;;;;;1.25;0.70;;;;;;;11.70;68.10;98071.25;5074875;28;20055;-82
2021/12/28 09:23:23;;;;;;;1.63;0.70;;;;;;;11.69;68.25;98069.63;5073810;28;20490;-81
2021/12/28 09:25:54;;;;;;;1.90;0.90;;;;;;;11.64;68.56;98075.56;5073530;28;20055;-80
2021/12/28 09:28:23;;;;;;;1.35;0.80;;;;;;;11.96;67.72;98083.50;5069211;28;20048;-80
2021/12/28 09:30:51;;;;;;;2.35;0.90;;;;;;;12.51;66.39;98069.66;5071473;28;20071;-79
2021/12/28 09:33:19;;;;;;;1.85;0.98;;;;;;;14.16;61.03;98056.50;5071160;28;20049;-79
2021/12/28 09:35:47;;;;;;;1.30;0.73;;;;;;;14.89;58.41;98060.13;5071967;28;20048;-81
2021/12/28 09:38:14;;;;;;;1.48;0.93;;;;;;;15.34;56.80;98046.41;5073856;28;20052;-80
2021/12/28 09:40:42;;;;;;;1.55;0.70;;;;;;;14.92;57.28;98068.53;5073376;28;20052;-80
2021/12/28 09:43:09;;;;;;;1.42;0.70;;;;;;;13.91;59.83;98070.47;5073722;28;20489;-79
2021/12/28 09:45:39;;;;;;;1.88;0.77;;;;;;;13.33;61.73;98077.84;5073237;28;20405;-80
2021/12/28 09:48:07;;;;;;;1.92;0.65;;;;;;;12.89;62.70;98075.97;5073876;28;20040;-80
2021/12/28 09:50:35;;;;;;;1.85;0.98;;;;;;;12.66;63.73;98073.41;5074391;28;20059;-81
2021/12/28 09:53:04;;;;;;;1.85;0.90;;;;;;;12.59;64.25;98071.31;5074670;28;20057;-79
2021/12/28 09:55:32;;;;;;;1.90;1.00;;;;;;;12.48;64.68;98080.81;5075480;28;20049;-80
2021/12/28 09:58:00;;;;;;;1.77;0.88;;;;;;;11.98;66.59;98078.34;5075198;28;20052;-78
2021/12/28 10:00:28;;;;;;;1.65;0.95;;;;;;;11.90;67.04;98079.47;5074024;28;20052;-81
2021/12/28 10:02:57;;;;;;;2.80;0.90;;;;;;;11.86;66.87;98078.59;5076815;28;20044;-80
2021/12/28 10:05:27;;;;;;;2.25;1.17;;;;;;;11.90;66.78;98074.69;5076935;28;20060;-79
2021/12/28 10:07:56;;;;;;;;;;;;;;;11.97;66.93;98054.44;5079820;28;20045;-78
2021/12/28 10:10:25;;;;;;;3.35;1.02;;;;;;;12.35;66.17;98052.41;5081223;28;19925;-81
2021/12/28 10:12:56;;;;;;;2.47;1.10;;;;;;;12.53;64.97;98056.13;5073325;28;20055;-80
2021/12/28 10:15:27;;;;;;;1.85;0.80;;;;;;;12.60;65.18;98038.63;5079813;28;20044;-84
2021/12/28 10:17:59;;;;;;;2.90;0.90;;;;;;;12.59;65.06;98045.41;5079437;28;20060;-84
2021/12/28 10:20:30;;;;;;;2.28;0.70;;;;;;;12.63;65.20;98048.22;5079424;28;20059;-79
2021/12/28 10:22:59;;;;;;;1.75;1.00;;;;;;;12.90;64.29;98049.59;5078719;28;20067;-80
2021/12/28 10:25:28;;;;;;;2.57;1.10;;;;;;;12.72;64.37;98048.69;5074727;28;20060;-80
2021/12/28 10:27:58;;;;;;;1.30;0.80;;;;;;;13.02;63.69;98039.28;5078534;28;20049;-79
2021/12/28 10:30:27;;;;;;;2.20;1.13;;;;;;;12.59;64.76;98037.81;5079775;28;20049;-79
2021/12/28 10:32:56;;;;;;;2.10;1.13;;;;;;;12.48;65.18;98033.34;5079002;28;20440;-80
2021/12/28 10:35:28;;;;;;;2.50;0.70;;;;;;;12.45;65.63;98023.78;5078963;28;20048;-80
2021/12/28 10:37:57;;;;;;;2.80;0.70;;;;;;;12.30;66.19;98027.63;5079441;28;20044;-80
2021/12/28 10:40:28;;;;;;;1.23;0.80;;;;;;;12.27;66.32;98017.25;5078764;28;20049;-79
2021/12/28 10:43:04;;;;;;;1.75;0.77;;;;;;;12.34;66.32;98022.88;5079409;28;20053;-79
2021/12/28 10:45:37;;;;;;;1.08;0.68;;;;;;;12.51;66.23;98013.81;5079884;28;20040;-80
2021/12/28 10:48:08;;;;;;;2.35;0.73;;;;;;;12.22;66.80;98023.16;5079649;28;20059;-79
2021/12/28 10:50:40;;;;;;;2.08;0.70;;;;;;;12.34;66.73;98000.53;5078786;28;20487;-79
2021/12/28 10:53:17;;;;;;;1.80;0.73;;;;;;;11.98;67.70;98005.81;5077923;28;20061;-79
2021/12/28 10:55:48;;;;;;;2.45;0.70;;;;;;;11.97;68.23;97999.44;5076855;28;20040;-80
2021/12/28 10:58:26;;;;;;;1.10;0.60;;;;;;;12.02;68.22;97997.50;5076693;28;20044;-80
2021/12/28 11:00:53;;;;;;;1.48;0.80;;;;;;;12.15;67.86;97988.44;5076918;28;20061;-80
2021/12/28 11:03:32;;;;;;;1.50;0.70;;;;;;;12.23;67.86;97978.13;5076127;28;20059;-80
2021/12/28 11:06:07;;;;;;;1.48;0.70;;;;;;;12.13;68.34;97968.47;5077631;28;20058;-80
2021/12/28 11:08:37;;;;;;;1.30;0.70;;;;;;;12.01;68.79;97974.38;5070386;28;20049;-80
2021/12/28 11:11:08;;;;;;;1.45;0.75;;;;;;;12.03;69.40;97971.19;5076004;28;20063;-80
2021/12/28 11:13:37;;;;;;;1.15;0.60;;;;;;;11.73;70.37;97978.44;5077813;28;20052;-80
2021/12/28 11:16:09;;;;;;;1.70;0.50;;;;;;;11.89;69.94;97969.09;5074030;28;20063;-78
2021/12/28 11:18:39;;;;;;;0.90;0.50;;;;;;;12.23;69.41;97955.81;5072687;28;20044;-78
2021/12/28 11:21:21;;;;;;;;;;;;;;;12.06;70.25;97973.22;5077783;28;20052;-78
2021/12/28 11:23:51;;;;;;;0.80;0.47;;;;;;;12.47;69.10;97945.97;5083804;28;19926;-79
2021/12/28 11:26:20;;;;;;;;;;;;;;;12.56;69.15;97942.88;5098330;28;20079;-79
2021/12/28 11:28:58;;;;;;;;;;;;;;;12.88;67.51;97943.03;5089304;28;20377;-79
2021/12/28 11:31:28;;;;;;;1.25;0.52;;;;;;;12.51;68.51;97952.38;5077171;28;19920;-78
2021/12/28 11:33:59;;;;;;;0.52;0.35;;;;;;;12.28;69.39;97951.84;5057943;28;20494;-78
2021/12/28 11:36:31;;;;;;;1.00;0.50;;;;;;;12.15;69.65;97952.16;5056726;28;20049;-78
2021/12/28 11:39:01;;;;;;;0.57;0.30;;;;;;;12.30;68.68;97943.88;5057180;28;20053;-78
2021/12/28 11:41:29;;;;;;;0.65;0.30;;;;;;;12.34;68.63;97933.53;5058746;28;20064;-78
2021/12/28 11:44:00;;;;;;;1.10;0.60;;;;;;;12.09;69.75;97916.63;5076253;28;20056;-78